Covington, Michigan
Current Conditions -  °F | °C
As of 12:15 AM on Tuesday 23 Dec 2014 (Local Time) from KLNL Reporting Station
Light Snow Light Snow  
Wind Chill: 24°   Ceiling: 1000
Heat Index: 31°   Visibility: 2.5mi
Dew Point: 30°   Wind: 8mph
Humidity: 96%   Direction: 90°E
Pressure: 29.75"   Gusts: NA
Location:  46.54°N, 88.54°W
Report Text: KLNL 230515Z AUTO 09007KT 2 1/2SM -SN OVC010 00/M01 A2975 RMK AO2 T10051011
Loading
Personal Weather Stations






























Interactive Weather Map New forecast layout! Learn more

10-Day Weather Forecast

Advertisements
Track Severe Weather on mobile